Gary, South Dakota
Current Conditions -  °F | °C
As of 1:34 PM on Tuesday 21 Oct 2014 (Local Time) from KCNB Reporting Station
Clear Clear  
Wind Chill: 71°   Ceiling: Unl
Heat Index: 71°   Visibility: 10mi
Dew Point: 41°   Wind: 15mph
Humidity: 33%   Direction: 150°SSE
Pressure: 30.01"   Gusts: NA
Location:  44.79°N, 96.46°W
Report Text: KCNB 211834Z AUTO 15013KT 10SM CLR 22/05 A3001 RMK AO2 T02160048
Loading
Personal Weather Stations






























Interactive Weather Map
Tropical Storm Tracking
New forecast layout! Learn more

10-Day Weather Forecast

Advertisements
Track Severe Weather on mobile